sensor_id;sensor_type;location;lat;lon;timestamp;P1;durP1;ratioP1;P2;durP2;ratioP2
51491;SDS011;37569;50.548;8.778;2023-04-01T00:04:28;8.2;;;2;;
51491;SDS011;37569;50.548;8.778;2023-04-01T00:09:29;5.3;;;2;;
51491;SDS011;37569;50.548;8.778;2023-04-01T00:14:29;7;;;2.3;;
51491;SDS011;37569;50.548;8.778;2023-04-01T00:19:29;8.4;;;2.4;;
51491;SDS011;37569;50.548;8.778;2023-04-01T00:24:30;8.4;;;2.4;;
51491;SDS011;37569;50.548;8.778;2023-04-01T00:29:30;7.5;;;2.8;;
51491;SDS011;37569;50.548;8.778;2023-04-01T00:34:31;5.3;;;2.6;;
51491;SDS011;37569;50.548;8.778;2023-04-01T00:39:31;8;;;2.5;;
51491;SDS011;37569;50.548;8.778;2023-04-01T00:44:33;6.2;;;2.4;;
51491;SDS011;37569;50.548;8.778;2023-04-01T00:49:32;6;;;2.2;;
51491;SDS011;37569;50.548;8.778;2023-04-01T00:54:32;6.5;;;2.3;;
51491;SDS011;37569;50.548;8.778;2023-04-01T00:59:33;5.7;;;2.5;;
51491;SDS011;37569;50.548;8.778;2023-04-01T01:04:33;6.3;;;2.3;;
51491;SDS011;37569;50.548;8.778;2023-04-01T01:09:37;9.2;;;2.4;;
51491;SDS011;37569;50.548;8.778;2023-04-01T01:14:36;8.8;;;2.5;;
51491;SDS011;37569;50.548;8.778;2023-04-01T01:19:42;5.8;;;2.2;;
51491;SDS011;37569;50.548;8.778;2023-04-01T01:24:39;7.5;;;2.3;;
51491;SDS011;37569;50.548;8.778;2023-04-01T01:29:39;4.4;;;2;;
51491;SDS011;37569;50.548;8.778;2023-04-01T01:34:36;6.3;;;2.3;;
51491;SDS011;37569;50.548;8.778;2023-04-01T01:39:36;6.2;;;2.1;;
51491;SDS011;37569;50.548;8.778;2023-04-01T01:44:36;4.5;;;2;;
51491;SDS011;37569;50.548;8.778;2023-04-01T01:49:36;7.8;;;2.4;;
51491;SDS011;37569;50.548;8.778;2023-04-01T01:54:46;5.7;;;1.9;;
51491;SDS011;37569;50.548;8.778;2023-04-01T01:59:37;4.9;;;2.1;;
51491;SDS011;37569;50.548;8.778;2023-04-01T02:04:38;5.6;;;2;;
51491;SDS011;37569;50.548;8.778;2023-04-01T02:09:38;5.4;;;1.7;;
51491;SDS011;37569;50.548;8.778;2023-04-01T02:14:39;4.9;;;1.9;;
51491;SDS011;37569;50.548;8.778;2023-04-01T02:19:39;4.4;;;1.6;;
51491;SDS011;37569;50.548;8.778;2023-04-01T02:24:39;3.8;;;1.5;;
51491;SDS011;37569;50.548;8.778;2023-04-01T02:29:39;5.1;;;1.5;;
51491;SDS011;37569;50.548;8.778;2023-04-01T02:34:40;3.5;;;1.4;;
51491;SDS011;37569;50.548;8.778;2023-04-01T02:39:41;4.1;;;1.4;;
51491;SDS011;37569;50.548;8.778;2023-04-01T02:44:40;4.9;;;1.5;;
51491;SDS011;37569;50.548;8.778;2023-04-01T02:49:41;3.7;;;1.3;;
51491;SDS011;37569;50.548;8.778;2023-04-01T02:54:41;3.6;;;1.6;;
51491;SDS011;37569;50.548;8.778;2023-04-01T02:59:42;3.5;;;1.5;;
51491;SDS011;37569;50.548;8.778;2023-04-01T03:04:42;4.5;;;1.5;;
51491;SDS011;37569;50.548;8.778;2023-04-01T03:09:42;5.9;;;1.7;;
51491;SDS011;37569;50.548;8.778;2023-04-01T03:14:43;6.4;;;1.6;;
51491;SDS011;37569;50.548;8.778;2023-04-01T03:19:43;4.6;;;1.6;;
51491;SDS011;37569;50.548;8.778;2023-04-01T03:24:44;5.4;;;1.7;;
51491;SDS011;37569;50.548;8.778;2023-04-01T03:29:44;5.5;;;1.8;;
51491;SDS011;37569;50.548;8.778;2023-04-01T03:34:44;6.1;;;2.3;;
51491;SDS011;37569;50.548;8.778;2023-04-01T03:39:45;6;;;2.5;;
51491;SDS011;37569;50.548;8.778;2023-04-01T03:44:45;5.4;;;2.2;;
51491;SDS011;37569;50.548;8.778;2023-04-01T03:49:45;5.9;;;2.2;;
51491;SDS011;37569;50.548;8.778;2023-04-01T03:54:46;4.5;;;2.2;;
51491;SDS011;37569;50.548;8.778;2023-04-01T03:59:46;4.6;;;1.9;;
51491;SDS011;37569;50.548;8.778;2023-04-01T04:04:46;5.2;;;2.1;;
51491;SDS011;37569;50.548;8.778;2023-04-01T04:09:47;6.7;;;2.1;;
51491;SDS011;37569;50.548;8.778;2023-04-01T04:14:47;4.7;;;2.4;;
51491;SDS011;37569;50.548;8.778;2023-04-01T04:19:47;4.9;;;2;;
51491;SDS011;37569;50.548;8.778;2023-04-01T04:24:48;5;;;2.2;;
51491;SDS011;37569;50.548;8.778;2023-04-01T04:29:48;7;;;2.5;;
51491;SDS011;37569;50.548;8.778;2023-04-01T04:34:48;5.8;;;3.1;;
51491;SDS011;37569;50.548;8.778;2023-04-01T04:39:49;7.9;;;2.3;;
51491;SDS011;37569;50.548;8.778;2023-04-01T04:44:49;5.9;;;2;;
51491;SDS011;37569;50.548;8.778;2023-04-01T04:49:49;3.8;;;2;;
51491;SDS011;37569;50.548;8.778;2023-04-01T04:54:50;6.3;;;1.9;;
51491;SDS011;37569;50.548;8.778;2023-04-01T04:59:50;8.7;;;2.8;;
51491;SDS011;37569;50.548;8.778;2023-04-01T05:04:50;8.1;;;2.2;;
51491;SDS011;37569;50.548;8.778;2023-04-01T05:09:50;6.2;;;2.1;;
51491;SDS011;37569;50.548;8.778;2023-04-01T05:14:51;6.6;;;2.1;;
51491;SDS011;37569;50.548;8.778;2023-04-01T05:19:52;6;;;2;;
51491;SDS011;37569;50.548;8.778;2023-04-01T05:24:51;5.2;;;2.1;;
51491;SDS011;37569;50.548;8.778;2023-04-01T05:29:52;6;;;1.8;;
51491;SDS011;37569;50.548;8.778;2023-04-01T05:34:52;5.6;;;1.8;;
51491;SDS011;37569;50.548;8.778;2023-04-01T05:39:52;4.5;;;1.8;;
51491;SDS011;37569;50.548;8.778;2023-04-01T05:44:53;4.8;;;1.8;;
51491;SDS011;37569;50.548;8.778;2023-04-01T05:49:53;5.9;;;1.8;;
51491;SDS011;37569;50.548;8.778;2023-04-01T05:54:54;4.4;;;1.7;;
51491;SDS011;37569;50.548;8.778;2023-04-01T05:59:54;5.4;;;1.9;;
51491;SDS011;37569;50.548;8.778;2023-04-01T06:04:59;6;;;3.3;;
51491;SDS011;37569;50.548;8.778;2023-04-01T06:09:55;5.3;;;2.5;;
51491;SDS011;37569;50.548;8.778;2023-04-01T06:14:57;4.1;;;2.1;;
51491;SDS011;37569;50.548;8.778;2023-04-01T06:19:57;7.4;;;2.5;;
51491;SDS011;37569;50.548;8.778;2023-04-01T06:25:01;5.3;;;2.4;;
51491;SDS011;37569;50.548;8.778;2023-04-01T06:29:58;4.9;;;2.3;;
51491;SDS011;37569;50.548;8.778;2023-04-01T06:35:03;7.3;;;2.3;;
51491;SDS011;37569;50.548;8.778;2023-04-01T06:40:01;6;;;2.6;;
51491;SDS011;37569;50.548;8.778;2023-04-01T06:45:01;5;;;2.1;;
51491;SDS011;37569;50.548;8.778;2023-04-01T06:50:00;3.8;;;1.7;;
51491;SDS011;37569;50.548;8.778;2023-04-01T06:55:01;4.6;;;1.5;;
51491;SDS011;37569;50.548;8.778;2023-04-01T06:59:59;2.3;;;1.4;;
51491;SDS011;37569;50.548;8.778;2023-04-01T07:04:59;2.9;;;1.3;;
51491;SDS011;37569;50.548;8.778;2023-04-01T07:10:01;2.7;;;1.3;;
51491;SDS011;37569;50.548;8.778;2023-04-01T07:15:01;4.2;;;1.4;;
51491;SDS011;37569;50.548;8.778;2023-04-01T07:20:01;1.9;;;1.3;;
51491;SDS011;37569;50.548;8.778;2023-04-01T07:25:02;4.5;;;2;;
51491;SDS011;37569;50.548;8.778;2023-04-01T07:30:02;4.2;;;1.8;;
51491;SDS011;37569;50.548;8.778;2023-04-01T07:35:05;3.3;;;1.7;;
51491;SDS011;37569;50.548;8.778;2023-04-01T07:40:06;4;;;1.4;;
51491;SDS011;37569;50.548;8.778;2023-04-01T07:45:05;3.2;;;1.4;;
51491;SDS011;37569;50.548;8.778;2023-04-01T07:50:07;3.2;;;1.3;;
51491;SDS011;37569;50.548;8.778;2023-04-01T07:55:05;3.8;;;1.5;;
51491;SDS011;37569;50.548;8.778;2023-04-01T08:00:05;2;;;1.1;;
51491;SDS011;37569;50.548;8.778;2023-04-01T08:05:08;3.2;;;1;;
51491;SDS011;37569;50.548;8.778;2023-04-01T08:10:07;4.7;;;3.8;;
51491;SDS011;37569;50.548;8.778;2023-04-01T08:15:09;2;;;1;;
51491;SDS011;37569;50.548;8.778;2023-04-01T08:20:14;1.4;;;1;;
51491;SDS011;37569;50.548;8.778;2023-04-01T08:25:09;1.1;;;0.9;;
51491;SDS011;37569;50.548;8.778;2023-04-01T08:30:14;2.2;;;1;;
51491;SDS011;37569;50.548;8.778;2023-04-01T08:35:08;3.4;;;1.1;;
51491;SDS011;37569;50.548;8.778;2023-04-01T08:40:16;0.8;;;0.7;;
51491;SDS011;37569;50.548;8.778;2023-04-01T08:45:15;1.2;;;0.9;;
51491;SDS011;37569;50.548;8.778;2023-04-01T08:50:20;1.3;;;0.8;;
51491;SDS011;37569;50.548;8.778;2023-04-01T08:55:16;1.1;;;0.8;;
51491;SDS011;37569;50.548;8.778;2023-04-01T09:00:13;1;;;0.7;;
51491;SDS011;37569;50.548;8.778;2023-04-01T09:05:21;1.5;;;0.8;;
51491;SDS011;37569;50.548;8.778;2023-04-01T09:10:15;2.2;;;0.8;;
51491;SDS011;37569;50.548;8.778;2023-04-01T09:15:16;1.6;;;0.7;;
51491;SDS011;37569;50.548;8.778;2023-04-01T09:20:23;1.7;;;0.8;;
51491;SDS011;37569;50.548;8.778;2023-04-01T09:25:30;2.2;;;0.8;;
51491;SDS011;37569;50.548;8.778;2023-04-01T09:30:19;0.8;;;0.6;;
51491;SDS011;37569;50.548;8.778;2023-04-01T09:35:20;0.9;;;0.7;;
51491;SDS011;37569;50.548;8.778;2023-04-01T09:40:15;0.8;;;0.8;;
51491;SDS011;37569;50.548;8.778;2023-04-01T09:45:17;1.2;;;0.7;;
51491;SDS011;37569;50.548;8.778;2023-04-01T09:50:16;1.3;;;0.7;;
51491;SDS011;37569;50.548;8.778;2023-04-01T09:55:21;0.7;;;0.6;;
51491;SDS011;37569;50.548;8.778;2023-04-01T10:00:20;1.5;;;0.6;;
51491;SDS011;37569;50.548;8.778;2023-04-01T10:05:22;1.5;;;0.6;;
51491;SDS011;37569;50.548;8.778;2023-04-01T10:10:23;0.8;;;0.5;;
51491;SDS011;37569;50.548;8.778;2023-04-01T10:15:52;1.2;;;0.7;;
51491;SDS011;37569;50.548;8.778;2023-04-01T10:20:28;0.7;;;0.7;;
51491;SDS011;37569;50.548;8.778;2023-04-01T10:25:23;1.9;;;1.3;;
51491;SDS011;37569;50.548;8.778;2023-04-01T10:30:23;0.6;;;0.6;;
51491;SDS011;37569;50.548;8.778;2023-04-01T10:35:20;0.8;;;0.6;;
51491;SDS011;37569;50.548;8.778;2023-04-01T10:40:24;0.9;;;0.6;;
51491;SDS011;37569;50.548;8.778;2023-04-01T10:45:25;3.7;;;2.1;;
51491;SDS011;37569;50.548;8.778;2023-04-01T10:50:23;0.5;;;0.5;;
51491;SDS011;37569;50.548;8.778;2023-04-01T10:55:27;0.8;;;0.8;;
51491;SDS011;37569;50.548;8.778;2023-04-01T11:00:28;0.9;;;0.7;;
51491;SDS011;37569;50.548;8.778;2023-04-01T11:05:46;0.9;;;0.8;;
51491;SDS011;37569;50.548;8.778;2023-04-01T11:10:25;1.8;;;0.7;;
51491;SDS011;37569;50.548;8.778;2023-04-01T11:15:26;1.1;;;0.7;;
51491;SDS011;37569;50.548;8.778;2023-04-01T11:20:28;1.1;;;0.8;;
51491;SDS011;37569;50.548;8.778;2023-04-01T11:25:29;1;;;0.6;;
51491;SDS011;37569;50.548;8.778;2023-04-01T11:30:26;1;;;0.6;;
51491;SDS011;37569;50.548;8.778;2023-04-01T11:35:28;0.6;;;0.6;;
51491;SDS011;37569;50.548;8.778;2023-04-01T11:40:26;0.7;;;0.7;;
51491;SDS011;37569;50.548;8.778;2023-04-01T11:45:30;1.6;;;0.9;;
51491;SDS011;37569;50.548;8.778;2023-04-01T11:50:27;0.9;;;0.7;;
51491;SDS011;37569;50.548;8.778;2023-04-01T11:55:28;1.2;;;1;;
51491;SDS011;37569;50.548;8.778;2023-04-01T12:01:03;2.1;;;1;;
51491;SDS011;37569;50.548;8.778;2023-04-01T12:05:31;1.7;;;0.9;;
51491;SDS011;37569;50.548;8.778;2023-04-01T12:10:29;2.5;;;1;;
51491;SDS011;37569;50.548;8.778;2023-04-01T12:15:29;1.2;;;0.9;;
51491;SDS011;37569;50.548;8.778;2023-04-01T12:20:30;1.7;;;1;;
51491;SDS011;37569;50.548;8.778;2023-04-01T12:25:36;1.2;;;1.1;;
51491;SDS011;37569;50.548;8.778;2023-04-01T12:30:32;6.6;;;3.1;;
51491;SDS011;37569;50.548;8.778;2023-04-01T12:35:32;1.5;;;1.2;;
51491;SDS011;37569;50.548;8.778;2023-04-01T12:40:38;2.3;;;1.6;;
51491;SDS011;37569;50.548;8.778;2023-04-01T12:45:31;7;;;4.5;;
51491;SDS011;37569;50.548;8.778;2023-04-01T12:50:34;2.5;;;2.3;;
51491;SDS011;37569;50.548;8.778;2023-04-01T12:55:35;2;;;1.4;;
51491;SDS011;37569;50.548;8.778;2023-04-01T13:00:39;1.1;;;1;;
51491;SDS011;37569;50.548;8.778;2023-04-01T13:05:39;1.2;;;0.9;;
51491;SDS011;37569;50.548;8.778;2023-04-01T13:10:38;1.4;;;1.3;;
51491;SDS011;37569;50.548;8.778;2023-04-01T13:15:36;1.8;;;1.7;;
51491;SDS011;37569;50.548;8.778;2023-04-01T13:20:38;1.5;;;1.3;;
51491;SDS011;37569;50.548;8.778;2023-04-01T13:25:36;1.8;;;1.5;;
51491;SDS011;37569;50.548;8.778;2023-04-01T13:30:37;1.9;;;1.7;;
51491;SDS011;37569;50.548;8.778;2023-04-01T13:35:39;2.3;;;1.8;;
51491;SDS011;37569;50.548;8.778;2023-04-01T13:40:39;1.9;;;1.4;;
51491;SDS011;37569;50.548;8.778;2023-04-01T13:45:40;1.6;;;1.5;;
51491;SDS011;37569;50.548;8.778;2023-04-01T13:50:45;1.5;;;1.2;;
51491;SDS011;37569;50.548;8.778;2023-04-01T13:55:41;2.1;;;1.5;;
51491;SDS011;37569;50.548;8.778;2023-04-01T14:00:42;1.2;;;1.1;;
51491;SDS011;37569;50.548;8.778;2023-04-01T14:05:47;1.1;;;1;;
51491;SDS011;37569;50.548;8.778;2023-04-01T14:10:42;1.3;;;1.1;;
51491;SDS011;37569;50.548;8.778;2023-04-01T14:15:47;1;;;1;;
51491;SDS011;37569;50.548;8.778;2023-04-01T14:20:41;1.6;;;1;;
51491;SDS011;37569;50.548;8.778;2023-04-01T14:25:47;1.1;;;1;;
51491;SDS011;37569;50.548;8.778;2023-04-01T14:30:45;1.4;;;1.1;;
51491;SDS011;37569;50.548;8.778;2023-04-01T14:35:45;1.2;;;1;;
51491;SDS011;37569;50.548;8.778;2023-04-01T14:40:48;1.4;;;1.2;;
51491;SDS011;37569;50.548;8.778;2023-04-01T14:45:45;1.4;;;1.1;;
51491;SDS011;37569;50.548;8.778;2023-04-01T14:50:45;2;;;1.8;;
51491;SDS011;37569;50.548;8.778;2023-04-01T14:55:48;1.6;;;1.5;;
51491;SDS011;37569;50.548;8.778;2023-04-01T15:00:48;1.4;;;1.3;;
51491;SDS011;37569;50.548;8.778;2023-04-01T15:05:47;1.6;;;1.5;;
51491;SDS011;37569;50.548;8.778;2023-04-01T15:10:53;5.6;;;3.2;;
51491;SDS011;37569;50.548;8.778;2023-04-01T15:15:53;4.8;;;3.4;;
51491;SDS011;37569;50.548;8.778;2023-04-01T15:20:51;4;;;2.8;;
51491;SDS011;37569;50.548;8.778;2023-04-01T15:25:51;3.9;;;2.5;;
51491;SDS011;37569;50.548;8.778;2023-04-01T15:30:51;3.9;;;2.8;;
51491;SDS011;37569;50.548;8.778;2023-04-01T15:35:51;2.9;;;1.9;;
51491;SDS011;37569;50.548;8.778;2023-04-01T15:40:52;5.1;;;3;;
51491;SDS011;37569;50.548;8.778;2023-04-01T15:45:51;3.2;;;2.3;;
51491;SDS011;37569;50.548;8.778;2023-04-01T15:50:53;2.4;;;1.6;;
51491;SDS011;37569;50.548;8.778;2023-04-01T15:55:53;2.8;;;2.2;;
51491;SDS011;37569;50.548;8.778;2023-04-01T16:00:53;1.6;;;1.2;;
51491;SDS011;37569;50.548;8.778;2023-04-01T16:05:56;2.1;;;1.4;;
51491;SDS011;37569;50.548;8.778;2023-04-01T16:11:12;2.8;;;1.7;;
51491;SDS011;37569;50.548;8.778;2023-04-01T16:15:57;2;;;1.6;;
51491;SDS011;37569;50.548;8.778;2023-04-01T16:20:55;3.2;;;1.8;;
51491;SDS011;37569;50.548;8.778;2023-04-01T16:25:58;2.6;;;1.9;;
51491;SDS011;37569;50.548;8.778;2023-04-01T16:30:57;3.7;;;3.2;;
51491;SDS011;37569;50.548;8.778;2023-04-01T16:35:57;2.5;;;1.8;;
51491;SDS011;37569;50.548;8.778;2023-04-01T16:41:00;4.3;;;2.5;;
51491;SDS011;37569;50.548;8.778;2023-04-01T16:46:06;2.6;;;1.5;;
51491;SDS011;37569;50.548;8.778;2023-04-01T16:50:58;2.6;;;1.4;;
51491;SDS011;37569;50.548;8.778;2023-04-01T16:56:02;3.1;;;1.9;;
51491;SDS011;37569;50.548;8.778;2023-04-01T17:01:00;2.7;;;2.1;;
51491;SDS011;37569;50.548;8.778;2023-04-01T17:06:03;3.5;;;2.4;;
51491;SDS011;37569;50.548;8.778;2023-04-01T17:11:02;3.1;;;1.9;;
51491;SDS011;37569;50.548;8.778;2023-04-01T17:16:03;3.6;;;2.3;;
51491;SDS011;37569;50.548;8.778;2023-04-01T17:21:02;3.1;;;2.2;;
51491;SDS011;37569;50.548;8.778;2023-04-01T17:26:05;3.3;;;2.4;;
51491;SDS011;37569;50.548;8.778;2023-04-01T17:31:04;3.6;;;2.3;;
51491;SDS011;37569;50.548;8.778;2023-04-01T17:36:04;2.9;;;1.9;;
51491;SDS011;37569;50.548;8.778;2023-04-01T17:41:04;5.6;;;3.9;;
51491;SDS011;37569;50.548;8.778;2023-04-01T17:46:05;3.7;;;2.9;;
51491;SDS011;37569;50.548;8.778;2023-04-01T17:51:07;2.3;;;1.8;;
51491;SDS011;37569;50.548;8.778;2023-04-01T17:56:07;2.4;;;2;;
51491;SDS011;37569;50.548;8.778;2023-04-01T18:01:08;2.5;;;1.9;;
51491;SDS011;37569;50.548;8.778;2023-04-01T18:06:06;2.1;;;1.9;;
51491;SDS011;37569;50.548;8.778;2023-04-01T18:11:09;3.2;;;2.3;;
51491;SDS011;37569;50.548;8.778;2023-04-01T18:16:11;1.9;;;1.7;;
51491;SDS011;37569;50.548;8.778;2023-04-01T18:21:08;2.4;;;1.6;;
51491;SDS011;37569;50.548;8.778;2023-04-01T18:26:08;2.7;;;1.9;;
51491;SDS011;37569;50.548;8.778;2023-04-01T18:31:09;4.4;;;3.3;;
51491;SDS011;37569;50.548;8.778;2023-04-01T18:36:09;2.7;;;2.3;;
51491;SDS011;37569;50.548;8.778;2023-04-01T18:41:11;3.5;;;2.4;;
51491;SDS011;37569;50.548;8.778;2023-04-01T18:46:12;3.2;;;2.9;;
51491;SDS011;37569;50.548;8.778;2023-04-01T18:51:11;2.7;;;2.4;;
51491;SDS011;37569;50.548;8.778;2023-04-01T18:56:11;1.6;;;1.5;;
51491;SDS011;37569;50.548;8.778;2023-04-01T19:01:12;2.1;;;1.7;;
51491;SDS011;37569;50.548;8.778;2023-04-01T19:06:15;1.5;;;1.4;;
51491;SDS011;37569;50.548;8.778;2023-04-01T19:11:14;1.5;;;1.3;;
51491;SDS011;37569;50.548;8.778;2023-04-01T19:16:15;1.9;;;1.4;;
51491;SDS011;37569;50.548;8.778;2023-04-01T19:21:14;2.5;;;1.7;;
51491;SDS011;37569;50.548;8.778;2023-04-01T19:26:14;1.7;;;1.5;;
51491;SDS011;37569;50.548;8.778;2023-04-01T19:31:19;2.5;;;1.6;;
51491;SDS011;37569;50.548;8.778;2023-04-01T19:36:15;4.3;;;1.8;;
51491;SDS011;37569;50.548;8.778;2023-04-01T19:41:18;2.1;;;1.6;;
51491;SDS011;37569;50.548;8.778;2023-04-01T19:46:17;2;;;1.7;;
51491;SDS011;37569;50.548;8.778;2023-04-01T19:51:17;2.3;;;1.7;;
51491;SDS011;37569;50.548;8.778;2023-04-01T19:56:17;2.3;;;1.8;;
51491;SDS011;37569;50.548;8.778;2023-04-01T20:01:18;1.9;;;1.5;;
51491;SDS011;37569;50.548;8.778;2023-04-01T20:06:19;2;;;1.8;;
51491;SDS011;37569;50.548;8.778;2023-04-01T20:11:21;1.6;;;1.5;;
51491;SDS011;37569;50.548;8.778;2023-04-01T20:16:18;2.2;;;1.6;;
51491;SDS011;37569;50.548;8.778;2023-04-01T20:21:24;3.2;;;1.6;;
51491;SDS011;37569;50.548;8.778;2023-04-01T20:26:20;1.8;;;1.6;;
51491;SDS011;37569;50.548;8.778;2023-04-01T20:31:23;1.8;;;1.5;;
51491;SDS011;37569;50.548;8.778;2023-04-01T20:36:21;3.3;;;2;;
51491;SDS011;37569;50.548;8.778;2023-04-01T20:41:20;3;;;1.8;;
51491;SDS011;37569;50.548;8.778;2023-04-01T20:46:22;3.4;;;2.3;;
51491;SDS011;37569;50.548;8.778;2023-04-01T20:51:22;2.4;;;2.1;;
51491;SDS011;37569;50.548;8.778;2023-04-01T20:56:23;2.3;;;2.1;;
51491;SDS011;37569;50.548;8.778;2023-04-01T21:01:25;2.3;;;2.1;;
51491;SDS011;37569;50.548;8.778;2023-04-01T21:06:33;2.3;;;2.1;;
51491;SDS011;37569;50.548;8.778;2023-04-01T21:11:25;2.7;;;2.1;;
51491;SDS011;37569;50.548;8.778;2023-04-01T21:16:25;2.8;;;2.2;;
51491;SDS011;37569;50.548;8.778;2023-04-01T21:21:26;2.8;;;2.1;;
51491;SDS011;37569;50.548;8.778;2023-04-01T21:26:26;2.2;;;2;;
51491;SDS011;37569;50.548;8.778;2023-04-01T21:31:28;2.5;;;1.9;;
51491;SDS011;37569;50.548;8.778;2023-04-01T21:36:27;2.2;;;2;;
51491;SDS011;37569;50.548;8.778;2023-04-01T21:41:31;2.4;;;2;;
51491;SDS011;37569;50.548;8.778;2023-04-01T21:46:30;2.3;;;2;;
51491;SDS011;37569;50.548;8.778;2023-04-01T21:51:30;2.6;;;2.3;;
51491;SDS011;37569;50.548;8.778;2023-04-01T21:56:38;2.1;;;1.9;;
51491;SDS011;37569;50.548;8.778;2023-04-01T22:01:39;2.2;;;2;;
51491;SDS011;37569;50.548;8.778;2023-04-01T22:06:28;2.5;;;1.7;;
51491;SDS011;37569;50.548;8.778;2023-04-01T22:11:30;2;;;1.8;;
51491;SDS011;37569;50.548;8.778;2023-04-01T22:16:30;3.4;;;1.9;;
51491;SDS011;37569;50.548;8.778;2023-04-01T22:21:29;2.1;;;1.9;;
51491;SDS011;37569;50.548;8.778;2023-04-01T22:26:31;1.8;;;1.7;;
51491;SDS011;37569;50.548;8.778;2023-04-01T22:31:31;2.1;;;1.9;;
51491;SDS011;37569;50.548;8.778;2023-04-01T22:36:31;2.2;;;2;;
51491;SDS011;37569;50.548;8.778;2023-04-01T22:41:34;2.2;;;2;;
51491;SDS011;37569;50.548;8.778;2023-04-01T22:46:35;3.1;;;2.3;;
51491;SDS011;37569;50.548;8.778;2023-04-01T22:51:38;2.3;;;2.1;;
51491;SDS011;37569;50.548;8.778;2023-04-01T22:56:33;2.6;;;2.1;;
51491;SDS011;37569;50.548;8.778;2023-04-01T23:01:32;2.9;;;2.3;;
51491;SDS011;37569;50.548;8.778;2023-04-01T23:06:32;2.7;;;2.2;;
51491;SDS011;37569;50.548;8.778;2023-04-01T23:11:33;2.6;;;2.4;;
51491;SDS011;37569;50.548;8.778;2023-04-01T23:16:34;3.6;;;2.5;;
51491;SDS011;37569;50.548;8.778;2023-04-01T23:21:35;2.5;;;2.2;;
51491;SDS011;37569;50.548;8.778;2023-04-01T23:26:35;2.2;;;2;;
51491;SDS011;37569;50.548;8.778;2023-04-01T23:31:36;2.5;;;2.3;;
51491;SDS011;37569;50.548;8.778;2023-04-01T23:36:37;2.4;;;2.2;;
51491;SDS011;37569;50.548;8.778;2023-04-01T23:41:35;2.2;;;2;;
51491;SDS011;37569;50.548;8.778;2023-04-01T23:46:35;2.7;;;2.5;;
51491;SDS011;37569;50.548;8.778;2023-04-01T23:51:37;2.9;;;2.4;;
51491;SDS011;37569;50.548;8.778;2023-04-01T23:56:37;2.6;;;2.4;;
